Hovedside
METAR-TAF:

METAR-TAF

Lufthavner :

Linköping, Sverige

Linköping lufthavn

breddegrad: 58-24N, lengdegrad: 015-41E, høyde over havet: 52 m

Gjeldene værobservasjon

Denne rapporten ble laget for 40 minutter siden, klokken 09:50 UTC
Vind 9 kt fra Vest, skiftende mellom Sørvest og Vest-nordvest
Temperatur 14°C
Luftfuktighet 77%
Trykk 997 hPa
Sikt 10 km eller mer
lett regn

METAR: ESSL 250950Z AUTO 27009KT 230V300 9999 -RA FEW004/// BKN038/// BKN059/// 14/10 Q0997 RERA

Tid: 12:30 (10:30 UTC)


TAF: fraværende

Værobservasjoner og værvarsel for over 4000 flyplasser (METAR- og TAF-rapporter).

Tilgjengelige stasjoner er representert av de røde og gule prikkene på kartet.

Hold musepekeren over prikken for å se navnet på stasjonen.

Klikk så for å se værobservasjoner og -varsler.

For å forandre kartet kan du klikke på den grønne knappen med svart kryss for å zoome inn, på den grønne knappen med strek for å zoome ut, eller på de grønne pilene for å se tilstøtende kart.


METAR-TAF: